Time;durP1;ratioP1;P1;durP2;ratioP2;P2;SDS_P1;SDS_P2;PMS_P1;PMS_P2;Temp;Humidity;BMP_temperature;BMP_pressure;BME280_temperature;BME280_humidity;BME280_pressure;Samples;Min_cycle;Max_cycle;Signal;HPM_P1;HPM_P2
2023/12/25 00:00:09;;;;;;;1.70;0.63;;;13.50;55.50;;;;;;5052257;28;20429;-83
2023/12/25 00:02:36;;;;;;;2.37;0.67;;;13.50;55.10;;;;;;5055479;28;20421;-85
2023/12/25 00:05:03;;;;;;;2.87;0.73;;;13.50;55.30;;;;;;5056533;28;20429;-88
2023/12/25 00:07:30;;;;;;;2.87;0.83;;;13.60;55.20;;;;;;5056855;28;20523;-85
2023/12/25 00:09:57;;;;;;;2.00;0.83;;;13.50;55.50;;;;;;5056387;28;20508;-85
2023/12/25 00:12:29;;;;;;;2.07;0.60;;;13.60;55.70;;;;;;5056461;28;20966;-84
2023/12/25 00:14:57;;;;;;;1.90;0.70;;;13.60;55.60;;;;;;5056961;28;20528;-85
2023/12/25 00:17:28;;;;;;;1.80;0.90;;;13.70;55.50;;;;;;5056154;28;20505;-89
2023/12/25 00:19:55;;;;;;;1.90;0.70;;;13.70;55.30;;;;;;5056646;28;20902;-85
2023/12/25 00:22:23;;;;;;;1.83;0.70;;;13.70;55.30;;;;;;5056194;28;20888;-85
2023/12/25 00:24:50;;;;;;;1.90;0.80;;;13.70;55.50;;;;;;5055998;28;20472;-89
2023/12/25 00:27:16;;;;;;;1.90;0.73;;;13.70;55.50;;;;;;5056630;28;20468;-88
2023/12/25 00:29:43;;;;;;;1.70;0.77;;;13.70;55.40;;;;;;5055662;28;20421;-88
2023/12/25 00:32:15;;;;;;;2.43;0.87;;;13.80;55.20;;;;;;5032209;28;20512;-82
2023/12/25 00:34:42;;;;;;;2.43;0.80;;;13.80;55.20;;;;;;5035984;28;20961;-84
2023/12/25 00:37:10;;;;;;;1.90;0.80;;;13.90;55.20;;;;;;5050604;28;20473;-87
2023/12/25 00:39:37;;;;;;;3.13;0.70;;;13.90;55.00;;;;;;5056071;28;21000;-85
2023/12/25 00:42:04;;;;;;;2.20;0.70;;;13.90;54.90;;;;;;5055013;28;20465;-84
2023/12/25 00:44:31;;;;;;;1.80;0.70;;;14.00;55.00;;;;;;5040550;28;20504;-84
2023/12/25 00:46:58;;;;;;;1.70;0.80;;;14.00;55.00;;;;;;5054751;28;20539;-88
2023/12/25 00:49:26;;;;;;;2.33;0.63;;;14.00;54.60;;;;;;5053945;28;20927;-88
2023/12/25 00:51:53;;;;;;;1.70;0.73;;;14.10;54.10;;;;;;5054618;28;20512;-85
2023/12/25 00:54:20;;;;;;;2.77;0.90;;;14.30;53.00;;;;;;5054095;28;20429;-86
2023/12/25 00:56:47;;;;;;;2.67;0.60;;;14.30;52.90;;;;;;5054594;28;20468;-85
2023/12/25 00:59:14;;;;;;;2.17;0.70;;;14.30;53.00;;;;;;5054002;28;20524;-84
2023/12/25 01:01:43;;;;;;;3.90;0.70;;;14.40;52.80;;;;;;5053196;28;20516;-86
2023/12/25 01:04:10;;;;;;;1.60;0.50;;;14.40;52.60;;;;;;5052633;28;20798;-84
2023/12/25 01:06:38;;;;;;;2.13;1.10;;;14.50;51.70;;;;;;5053511;28;20492;-86
2023/12/25 01:09:05;;;;;;;3.03;1.13;;;14.50;51.00;;;;;;5054153;28;20520;-85
2023/12/25 01:11:32;;;;;;;1.87;0.60;;;14.60;50.50;;;;;;5053567;28;20971;-84
2023/12/25 01:13:59;;;;;;;1.80;0.80;;;14.60;50.60;;;;;;5053948;28;20480;-85
2023/12/25 01:16:26;;;;;;;2.80;0.77;;;14.60;50.70;;;;;;5053967;28;20556;-86
2023/12/25 01:18:53;;;;;;;1.90;0.70;;;14.60;50.50;;;;;;5054383;28;20521;-85
2023/12/25 01:21:19;;;;;;;2.00;0.80;;;14.70;50.20;;;;;;5054484;28;20492;-85
2023/12/25 01:23:48;;;;;;;1.77;0.73;;;14.70;50.00;;;;;;5053637;28;20517;-85
2023/12/25 01:26:14;;;;;;;2.20;0.70;;;14.70;49.70;;;;;;5054523;28;20517;-85
2023/12/25 01:28:41;;;;;;;1.70;0.60;;;14.70;49.70;;;;;;5054545;28;20531;-85
2023/12/25 01:31:08;;;;;;;1.80;0.87;;;14.70;49.20;;;;;;5053634;28;20431;-85
2023/12/25 01:33:35;;;;;;;2.47;0.80;;;14.70;49.00;;;;;;5053994;28;20429;-86
2023/12/25 01:36:02;;;;;;;2.10;0.70;;;14.80;49.00;;;;;;5054004;28;20525;-84
2023/12/25 01:38:29;;;;;;;4.57;0.63;;;14.70;48.90;;;;;;5053966;28;20468;-85
2023/12/25 01:40:57;;;;;;;2.20;0.60;;;14.70;48.60;;;;;;5053747;28;20529;-85
2023/12/25 01:43:24;;;;;;;1.80;0.53;;;14.70;48.40;;;;;;5052876;28;20520;-85
2023/12/25 01:45:51;;;;;;;2.50;0.73;;;14.70;48.10;;;;;;5054190;28;20621;-86
2023/12/25 01:48:18;;;;;;;1.70;0.50;;;14.70;48.10;;;;;;5016803;28;1092655;-85
2023/12/25 01:50:46;;;;;;;1.70;0.60;;;14.70;48.00;;;;;;5053964;28;20273;-85
2023/12/25 01:53:13;;;;;;;2.00;0.87;;;14.60;48.30;;;;;;5055130;28;20523;-86
2023/12/25 01:55:41;;;;;;;2.00;0.70;;;14.60;48.40;;;;;;5054995;28;20473;-85
2023/12/25 01:58:09;;;;;;;1.80;0.63;;;14.60;48.00;;;;;;5054950;28;20556;-86
2023/12/25 02:00:36;;;;;;;2.27;0.70;;;14.50;47.80;;;;;;5054299;28;20463;-83
2023/12/25 02:03:03;;;;;;;1.90;0.90;;;14.50;47.70;;;;;;5054876;28;20425;-82
2023/12/25 02:05:30;;;;;;;1.90;0.70;;;14.40;47.40;;;;;;5054527;28;20466;-82
2023/12/25 02:07:57;;;;;;;2.30;0.90;;;14.30;47.50;;;;;;5054498;28;20475;-82
2023/12/25 02:10:29;;;;;;;1.90;0.70;;;14.30;47.20;;;;;;5054301;28;20473;-81
2023/12/25 02:12:57;;;;;;;1.80;0.63;;;14.30;47.20;;;;;;5054299;28;20760;-82
2023/12/25 02:15:27;;;;;;;1.70;0.60;;;14.20;47.00;;;;;;5053930;28;20522;-82
2023/12/25 02:17:54;;;;;;;2.77;0.83;;;14.20;46.20;;;;;;5053995;28;20508;-84
2023/12/25 02:20:21;;;;;;;1.80;0.60;;;14.20;45.80;;;;;;5054668;28;20461;-83
2023/12/25 02:22:49;;;;;;;1.70;0.67;;;14.20;45.50;;;;;;5054196;28;20460;-82
2023/12/25 02:25:28;;;;;;;1.70;0.70;;;14.20;45.40;;;;;;5054542;28;20863;-83
2023/12/25 02:28:02;;;;;;;1.90;0.97;;;14.20;45.40;;;;;;5054504;28;20487;-83
2023/12/25 02:30:29;;;;;;;1.90;0.70;;;14.10;45.30;;;;;;5053789;28;20512;-83
2023/12/25 02:32:56;;;;;;;2.93;0.90;;;14.10;45.30;;;;;;5053342;28;20515;-83
2023/12/25 02:35:24;;;;;;;1.70;0.60;;;14.10;45.00;;;;;;5053582;28;20437;-84
2023/12/25 02:37:52;;;;;;;1.70;0.60;;;14.20;45.10;;;;;;5054177;28;20771;-83
2023/12/25 02:40:19;;;;;;;2.30;0.60;;;14.20;45.10;;;;;;5053508;28;20436;-82
2023/12/25 02:42:45;;;;;;;3.67;0.90;;;14.20;44.90;;;;;;5054100;28;20523;-83
2023/12/25 02:45:14;;;;;;;2.10;1.00;;;14.10;45.00;;;;;;5053750;28;20520;-82
2023/12/25 02:47:41;;;;;;;4.00;0.93;;;14.10;45.00;;;;;;5053653;28;20556;-82
2023/12/25 02:50:08;;;;;;;1.60;0.50;;;14.10;45.00;;;;;;5053795;28;20512;-80
2023/12/25 02:52:35;;;;;;;1.73;0.70;;;14.10;45.10;;;;;;5053336;28;20429;-83
2023/12/25 02:55:02;;;;;;;1.97;0.90;;;14.00;45.30;;;;;;5053624;28;20468;-83
2023/12/25 02:57:29;;;;;;;1.70;0.70;;;14.00;45.50;;;;;;5053674;28;21053;-83
2023/12/25 02:59:56;;;;;;;1.80;0.87;;;14.00;46.10;;;;;;5053230;28;20792;-82
2023/12/25 03:02:25;;;;;;;1.83;0.83;;;13.90;46.40;;;;;;5053320;28;20849;-82
2023/12/25 03:04:52;;;;;;;1.70;0.60;;;13.90;46.90;;;;;;5053783;28;20487;-82
2023/12/25 03:07:19;;;;;;;1.90;0.70;;;13.90;47.40;;;;;;5053430;28;20556;-83
2023/12/25 03:09:46;;;;;;;2.00;0.73;;;13.80;47.80;;;;;;5053666;28;20521;-82
2023/12/25 03:12:13;;;;;;;1.70;0.60;;;13.70;48.30;;;;;;5053109;28;20438;-82
2023/12/25 03:14:46;;;;;;;2.33;0.60;;;13.70;48.90;;;;;;5053323;28;20567;-83
2023/12/25 03:17:13;;;;;;;1.70;0.60;;;13.70;49.20;;;;;;5053688;28;20457;-83
2023/12/25 03:19:41;;;;;;;2.10;0.90;;;13.60;49.40;;;;;;5053480;28;20531;-83
2023/12/25 03:22:12;;;;;;;2.23;0.50;;;13.50;49.30;;;;;;5052993;28;20516;-83
2023/12/25 03:24:39;;;;;;;2.37;0.90;;;13.50;49.30;;;;;;5053726;28;20418;-83
2023/12/25 03:27:05;;;;;;;3.43;1.10;;;13.50;49.20;;;;;;5053355;28;20524;-83
2023/12/25 03:29:32;;;;;;;2.07;0.70;;;13.50;49.10;;;;;;5053469;28;20444;-83
2023/12/25 03:31:59;;;;;;;2.00;0.70;;;13.40;49.70;;;;;;5052715;28;20512;-83
2023/12/25 03:34:26;;;;;;;1.80;0.70;;;13.30;48.60;;;;;;5053031;28;20491;-83
2023/12/25 03:36:55;;;;;;;1.90;0.70;;;13.30;48.20;;;;;;5053232;28;20507;-83
2023/12/25 03:39:22;;;;;;;3.37;0.73;;;13.30;47.90;;;;;;5053320;28;20838;-82
2023/12/25 03:41:49;;;;;;;1.90;0.80;;;13.30;47.80;;;;;;5053059;28;20861;-82
2023/12/25 03:44:16;;;;;;;2.10;1.10;;;13.20;47.50;;;;;;5053601;28;20867;-83
2023/12/25 03:46:43;;;;;;;2.17;0.70;;;13.20;47.70;;;;;;5053262;28;20555;-83
2023/12/25 03:49:10;;;;;;;1.80;0.87;;;13.20;47.20;;;;;;5052445;28;20899;-84
2023/12/25 03:51:37;;;;;;;2.00;0.97;;;13.20;47.30;;;;;;5052587;28;20482;-83
2023/12/25 03:54:05;;;;;;;1.80;0.80;;;13.10;47.20;;;;;;5052783;28;20519;-83
2023/12/25 03:56:32;;;;;;;1.70;0.60;;;13.10;47.20;;;;;;5052828;28;20433;-82
2023/12/25 03:58:59;;;;;;;2.20;0.90;;;13.10;46.70;;;;;;5051976;28;20479;-84
2023/12/25 04:01:26;;;;;;;1.83;0.77;;;13.10;46.60;;;;;;5052583;28;20429;-85
2023/12/25 04:03:53;;;;;;;2.13;0.70;;;13.00;46.10;;;;;;5052707;28;20441;-85
2023/12/25 04:06:24;;;;;;;1.77;0.70;;;13.00;45.40;;;;;;5051741;28;20519;-84
2023/12/25 04:08:51;;;;;;;1.90;0.90;;;13.00;44.90;;;;;;5052336;28;20533;-85
2023/12/25 04:11:23;;;;;;;2.03;0.93;;;13.00;44.90;;;;;;5052003;28;20517;-85
2023/12/25 04:13:53;;;;;;;3.67;0.97;;;13.00;44.40;;;;;;5036768;28;20433;-86
2023/12/25 04:16:21;;;;;;;1.70;0.60;;;13.00;44.00;;;;;;5052683;28;20520;-86
2023/12/25 04:18:48;;;;;;;2.00;0.80;;;12.90;43.00;;;;;;5052038;28;20976;-86
2023/12/25 04:21:25;;;;;;;2.10;1.00;;;12.90;42.90;;;;;;5052473;28;20860;-87
2023/12/25 04:23:52;;;;;;;3.40;0.83;;;12.90;42.00;;;;;;5051439;28;20472;-87
2023/12/25 04:26:18;;;;;;;1.90;0.70;;;12.90;41.40;;;;;;5052585;28;20469;-86
2023/12/25 04:28:47;;;;;;;1.80;0.80;;;12.90;41.30;;;;;;5052742;28;20473;-86
2023/12/25 04:31:14;;;;;;;1.73;0.70;;;12.90;41.20;;;;;;5051795;28;20461;-85
2023/12/25 04:33:41;;;;;;;2.60;0.87;;;12.90;40.40;;;;;;5052570;28;20521;-86
2023/12/25 04:36:08;;;;;;;1.90;0.90;;;12.90;40.10;;;;;;5052834;28;20465;-86
2023/12/25 04:38:36;;;;;;;1.77;0.70;;;12.90;40.00;;;;;;5052365;28;20511;-85
2023/12/25 04:41:03;;;;;;;2.20;0.63;;;12.90;39.30;;;;;;5055417;28;20425;-85
2023/12/25 04:43:30;;;;;;;1.90;0.90;;;12.90;38.30;;;;;;5056362;28;20432;-86
2023/12/25 04:46:02;;;;;;;1.90;0.80;;;12.90;38.10;;;;;;5056379;28;20491;-86
2023/12/25 04:48:39;;;;;;;1.90;0.80;;;13.00;37.70;;;;;;5055937;28;20942;-85
2023/12/25 04:51:08;;;;;;;1.93;0.70;;;13.00;37.40;;;;;;5055342;28;20412;-86
2023/12/25 04:53:36;;;;;;;2.20;0.80;;;13.00;37.20;;;;;;5054526;28;20527;-85
2023/12/25 04:56:03;;;;;;;1.80;0.77;;;13.00;37.40;;;;;;5056386;28;20444;-85
2023/12/25 04:58:30;;;;;;;1.80;0.60;;;13.00;37.20;;;;;;5056131;28;20533;-86
2023/12/25 05:00:59;;;;;;;1.70;0.60;;;13.00;37.20;;;;;;5055873;28;20430;-85
2023/12/25 05:03:26;;;;;;;1.80;0.50;;;13.00;36.40;;;;;;5055718;28;20515;-85
2023/12/25 05:05:52;;;;;;;2.27;0.90;;;13.00;36.50;;;;;;5056279;28;20523;-85
2023/12/25 05:08:19;;;;;;;2.00;1.07;;;13.10;36.50;;;;;;5056167;28;20531;-85
2023/12/25 05:10:46;;;;;;;2.57;1.00;;;13.00;36.30;;;;;;5055316;28;20520;-86
2023/12/25 05:13:13;;;;;;;1.80;0.70;;;13.10;36.00;;;;;;5056130;28;20832;-86
2023/12/25 05:15:40;;;;;;;1.70;0.60;;;13.00;35.50;;;;;;5055785;28;20441;-86
2023/12/25 05:18:08;;;;;;;1.90;0.70;;;13.00;35.50;;;;;;5055924;28;20559;-85
2023/12/25 05:20:35;;;;;;;1.80;0.77;;;13.00;35.20;;;;;;5055275;28;20946;-86
2023/12/25 05:23:02;;;;;;;1.70;0.67;;;13.00;34.90;;;;;;5055516;28;20990;-86
2023/12/25 05:25:29;;;;;;;1.77;0.77;;;13.00;34.50;;;;;;5055503;28;20437;-86
2023/12/25 05:27:56;;;;;;;2.00;0.90;;;13.00;34.60;;;;;;5055497;28;20520;-86
2023/12/25 05:30:23;;;;;;;2.87;0.90;;;13.00;34.50;;;;;;5055387;28;20517;-88
2023/12/25 05:32:50;;;;;;;1.70;0.70;;;13.00;34.60;;;;;;5055418;28;21000;-87
2023/12/25 05:35:19;;;;;;;1.90;0.83;;;13.00;34.70;;;;;;5055618;28;20461;-87
2023/12/25 05:37:46;;;;;;;1.80;0.70;;;13.00;34.70;;;;;;5055585;28;20563;-87
2023/12/25 05:40:13;;;;;;;2.33;0.97;;;13.10;34.20;;;;;;5054714;28;20524;-86
2023/12/25 05:42:40;;;;;;;1.90;0.77;;;13.10;34.00;;;;;;5055504;28;20441;-87
2023/12/25 05:45:08;;;;;;;1.80;0.60;;;13.10;33.80;;;;;;5055440;28;20528;-86
2023/12/25 05:47:35;;;;;;;1.60;0.50;;;13.00;33.60;;;;;;5055090;28;20473;-86
2023/12/25 05:50:02;;;;;;;1.90;0.70;;;13.00;33.40;;;;;;5054449;28;20480;-87
2023/12/25 05:52:31;;;;;;;2.57;0.70;;;13.10;33.00;;;;;;5054485;28;20469;-87
2023/12/25 05:54:58;;;;;;;1.90;0.70;;;13.00;33.10;;;;;;5054996;28;20523;-87
2023/12/25 05:57:25;;;;;;;2.00;0.60;;;13.00;33.30;;;;;;5054790;28;20441;-87
2023/12/25 05:59:52;;;;;;;3.17;0.90;;;13.10;33.30;;;;;;5054782;28;20508;-85
2023/12/25 06:02:19;;;;;;;1.80;0.60;;;13.10;33.30;;;;;;5055075;28;20515;-88
2023/12/25 06:04:46;;;;;;;1.80;0.73;;;13.10;33.20;;;;;;5054723;28;20429;-87
2023/12/25 06:07:13;;;;;;;1.70;0.60;;;13.10;33.00;;;;;;5055094;28;20536;-86
2023/12/25 06:09:41;;;;;;;2.00;0.77;;;13.10;32.60;;;;;;5054574;28;20516;-86
2023/12/25 06:12:08;;;;;;;1.80;0.70;;;13.10;33.00;;;;;;5054955;28;20476;-86
2023/12/25 06:14:36;;;;;;;1.80;0.50;;;13.10;32.90;;;;;;5054590;28;20469;-86
2023/12/25 06:17:04;;;;;;;2.20;0.60;;;13.00;33.10;;;;;;5055101;28;20445;-86
2023/12/25 06:19:30;;;;;;;1.90;0.70;;;13.00;33.10;;;;;;5054155;28;21012;-85
2023/12/25 06:21:57;;;;;;;1.80;0.73;;;13.00;33.20;;;;;;5054521;28;20998;-87
2023/12/25 06:24:24;;;;;;;2.10;1.10;;;13.00;32.30;;;;;;5054883;28;20464;-87
2023/12/25 06:26:52;;;;;;;1.80;0.90;;;13.00;32.00;;;;;;5054724;28;20519;-87
2023/12/25 06:29:19;;;;;;;1.80;0.70;;;13.00;32.00;;;;;;5054391;28;20849;-87
2023/12/25 06:31:47;;;;;;;1.90;0.60;;;13.00;31.80;;;;;;5051436;28;20469;-87
2023/12/25 06:34:14;;;;;;;1.90;0.73;;;13.00;31.60;;;;;;5053175;28;20429;-86
2023/12/25 06:36:42;;;;;;;1.87;0.77;;;12.90;31.20;;;;;;5049598;28;20480;-86
2023/12/25 06:39:09;;;;;;;2.00;1.00;;;13.00;31.10;;;;;;5036374;28;20898;-88
2023/12/25 06:41:36;;;;;;;2.20;0.70;;;13.00;30.60;;;;;;5053690;28;20528;-89
2023/12/25 06:44:05;;;;;;;1.90;0.70;;;13.00;30.10;;;;;;5053848;28;20479;-84
2023/12/25 06:46:36;;;;;;;1.83;0.80;;;13.00;30.20;;;;;;5052395;28;20551;-85
2023/12/25 06:49:17;;;;;;;1.70;0.70;;;13.00;30.00;;;;;;5053424;28;20524;-88
2023/12/25 06:51:51;;;;;;;1.80;0.70;;;13.00;29.90;;;;;;5054084;28;20437;-91
2023/12/25 06:54:17;;;;;;;1.80;0.70;;;13.00;30.00;;;;;;5053712;28;20425;-91
2023/12/25 06:56:48;;;;;;;1.80;0.80;;;13.00;29.60;;;;;;5053608;28;20453;-82
2023/12/25 06:59:22;;;;;;;2.30;1.10;;;13.00;29.00;;;;;;5052986;28;20524;-89
2023/12/25 07:01:49;;;;;;;2.30;1.10;;;13.00;28.80;;;;;;5052908;28;20425;-90
2023/12/25 07:04:17;;;;;;;2.00;0.63;;;13.00;28.80;;;;;;5053429;28;20433;-89
2023/12/25 07:06:44;;;;;;;1.90;0.90;;;13.00;28.30;;;;;;5052668;28;20449;-89
2023/12/25 07:09:14;;;;;;;2.00;0.73;;;13.10;28.20;;;;;;5052090;28;20441;-90
2023/12/25 07:11:41;;;;;;;1.80;0.73;;;13.10;28.00;;;;;;5053148;28;20425;-90
2023/12/25 07:14:08;;;;;;;2.00;1.00;;;13.10;27.90;;;;;;5052467;28;20441;-89
2023/12/25 07:16:37;;;;;;;2.30;0.67;;;13.20;27.40;;;;;;5052942;28;20465;-89
2023/12/25 07:19:04;;;;;;;1.77;0.63;;;13.10;27.60;;;;;;5052515;28;20571;-86
2023/12/25 07:21:31;;;;;;;3.00;0.87;;;13.10;27.90;;;;;;5052947;28;20469;-87
2023/12/25 07:23:58;;;;;;;2.43;1.00;;;13.20;27.90;;;;;;5052749;28;20436;-87
2023/12/25 07:26:25;;;;;;;2.40;0.90;;;13.30;27.30;;;;;;5052443;28;20843;-86
2023/12/25 07:28:52;;;;;;;1.67;0.60;;;13.50;26.40;;;;;;5052624;28;20533;-87
2023/12/25 07:31:20;;;;;;;1.63;0.60;;;13.80;26.40;;;;;;5052493;28;20455;-88
2023/12/25 07:33:50;;;;;;;2.37;1.10;;;13.90;26.00;;;;;;5052751;28;20499;-86
2023/12/25 07:36:17;;;;;;;2.30;0.90;;;14.10;26.00;;;;;;5052432;28;20441;-88
2023/12/25 07:38:45;;;;;;;1.80;0.60;;;14.10;25.30;;;;;;5051928;28;20472;-92
2023/12/25 07:41:13;;;;;;;2.50;1.33;;;14.10;25.20;;;;;;5052245;28;20433;-89
2023/12/25 07:43:40;;;;;;;2.63;0.80;;;14.10;26.00;;;;;;5052696;28;20468;-91
2023/12/25 07:46:08;;;;;;;2.00;0.80;;;14.10;26.50;;;;;;5052272;28;20441;-90
2023/12/25 07:48:35;;;;;;;2.00;0.80;;;13.90;27.00;;;;;;5052783;28;20532;-91
2023/12/25 07:51:03;;;;;;;1.80;0.70;;;13.90;27.10;;;;;;5051627;28;20464;-86
2023/12/25 07:53:30;;;;;;;2.10;0.80;;;13.90;27.60;;;;;;5051804;28;20449;-86
2023/12/25 07:55:58;;;;;;;2.10;1.03;;;13.80;27.90;;;;;;5052644;28;20539;-86
2023/12/25 07:58:25;;;;;;;1.90;0.80;;;13.70;28.20;;;;;;5051563;28;20548;-86
2023/12/25 08:00:52;;;;;;;1.90;0.70;;;13.70;28.40;;;;;;5051209;28;20457;-86
2023/12/25 08:03:19;;;;;;;1.90;0.80;;;13.60;28.10;;;;;;5052022;28;20425;-87
2023/12/25 08:05:46;;;;;;;3.63;1.60;;;13.60;28.40;;;;;;5050681;28;20467;-85
2023/12/25 08:08:14;;;;;;;2.13;1.00;;;13.60;28.60;;;;;;5051386;28;20866;-86
2023/12/25 08:10:41;;;;;;;3.13;1.10;;;13.60;28.90;;;;;;5051908;28;20508;-87
2023/12/25 08:13:08;;;;;;;2.37;0.80;;;13.70;28.70;;;;;;5051117;28;20436;-86
2023/12/25 08:15:35;;;;;;;2.03;0.80;;;13.80;29.30;;;;;;5055040;28;21038;-87
2023/12/25 08:18:03;;;;;;;2.00;1.00;;;13.90;28.40;;;;;;5056425;28;20433;-86
2023/12/25 08:20:30;;;;;;;2.40;1.00;;;13.90;28.70;;;;;;5055979;28;20856;-87
2023/12/25 08:22:56;;;;;;;2.63;0.83;;;13.90;28.60;;;;;;5056752;28;20508;-88
2023/12/25 08:25:25;;;;;;;2.30;1.20;;;14.00;28.50;;;;;;5056301;28;20479;-88
2023/12/25 08:27:52;;;;;;;3.00;1.60;;;14.10;28.60;;;;;;5055527;28;20465;-88
2023/12/25 08:30:19;;;;;;;3.20;1.43;;;14.30;29.20;;;;;;5055281;28;20781;-88
2023/12/25 08:32:46;;;;;;;2.43;1.30;;;14.50;29.10;;;;;;5056250;28;20490;-87
2023/12/25 08:35:13;;;;;;;1.80;0.60;;;14.70;28.40;;;;;;5055738;28;20449;-87
2023/12/25 08:37:40;;;;;;;2.50;1.10;;;15.00;28.10;;;;;;5055955;28;20524;-86
2023/12/25 08:40:08;;;;;;;1.90;0.80;;;15.30;27.60;;;;;;5055547;28;20584;-88
2023/12/25 08:42:37;;;;;;;2.17;0.80;;;15.50;27.30;;;;;;5055815;28;20534;-87
2023/12/25 08:45:06;;;;;;;2.00;0.80;;;15.80;27.10;;;;;;5055692;28;20427;-87
2023/12/25 08:47:33;;;;;;;1.90;0.97;;;16.00;27.10;;;;;;5055783;28;20470;-85
2023/12/25 08:50:00;;;;;;;2.37;0.80;;;16.20;26.70;;;;;;5055490;28;20495;-86
2023/12/25 08:52:27;;;;;;;3.87;1.00;;;16.50;26.30;;;;;;5055818;28;20901;-86
2023/12/25 08:54:54;;;;;;;1.90;0.70;;;16.90;26.20;;;;;;5055387;28;20444;-85
2023/12/25 08:57:21;;;;;;;2.30;1.13;;;17.40;25.30;;;;;;5055240;28;20435;-87
2023/12/25 08:59:50;;;;;;;2.90;1.30;;;18.00;25.30;;;;;;5055493;28;20566;-87
2023/12/25 09:02:17;;;;;;;2.47;0.70;;;18.60;24.80;;;;;;5054319;28;20433;-88
2023/12/25 09:04:44;;;;;;;9.80;3.63;;;19.00;24.10;;;;;;5054912;28;20471;-86
2023/12/25 09:07:11;;;;;;;1.80;0.60;;;19.40;24.10;;;;;;5054562;28;20967;-88
2023/12/25 09:09:38;;;;;;;2.97;0.70;;;19.70;23.60;;;;;;5055514;28;20476;-90
2023/12/25 09:12:05;;;;;;;1.93;0.73;;;20.00;22.60;;;;;;5054740;28;20499;-88
2023/12/25 09:14:33;;;;;;;3.53;0.90;;;20.20;21.50;;;;;;5054928;28;20441;-89
2023/12/25 09:17:02;;;;;;;2.40;0.63;;;20.50;21.30;;;;;;5055183;28;20508;-90
2023/12/25 09:19:29;;;;;;;1.87;0.70;;;20.60;20.80;;;;;;5054270;28;20776;-88
2023/12/25 09:21:56;;;;;;;2.20;0.70;;;20.70;20.20;;;;;;5054894;28;20860;-88
2023/12/25 09:24:23;;;;;;;2.77;1.07;;;20.60;19.80;;;;;;5054653;28;20459;-86
2023/12/25 09:26:52;;;;;;;1.97;0.70;;;20.40;19.60;;;;;;5054664;28;20447;-86
2023/12/25 09:29:19;;;;;;;1.70;0.50;;;20.50;19.80;;;;;;5054242;28;20476;-88
2023/12/25 09:31:46;;;;;;;2.50;0.63;;;20.60;19.30;;;;;;5054946;28;20519;-89
2023/12/25 09:34:14;;;;;;;1.90;0.60;;;20.90;19.20;;;;;;5054031;28;20495;-87
2023/12/25 09:36:41;;;;;;;2.00;0.60;;;21.10;18.70;;;;;;5054642;28;20523;-87
2023/12/25 09:39:08;;;;;;;2.00;0.60;;;21.20;19.20;;;;;;5054486;28;20524;-90
2023/12/25 09:41:36;;;;;;;2.00;1.07;;;21.50;19.10;;;;;;5054429;28;20434;-88
2023/12/25 09:44:04;;;;;;;2.23;0.80;;;21.70;18.60;;;;;;5054066;28;20437;-89
2023/12/25 09:46:31;;;;;;;2.17;0.70;;;21.80;18.20;;;;;;5053674;28;20499;-89
2023/12/25 09:48:59;;;;;;;1.90;0.60;;;21.90;18.10;;;;;;5053880;28;20473;-90
2023/12/25 09:51:28;;;;;;;1.70;0.50;;;22.00;18.50;;;;;;5053582;28;20536;-89
2023/12/25 09:53:55;;;;;;;2.17;0.70;;;22.40;19.20;;;;;;5053440;28;20813;-92
2023/12/25 09:56:24;;;;;;;2.10;0.60;;;22.80;18.00;;;;;;5057492;28;20512;-92
2023/12/25 09:58:57;;;;;;;2.10;0.70;;;23.20;18.00;;;;;;5059427;28;20440;-93
2023/12/25 10:01:25;;;;;;;3.13;0.70;;;23.30;17.50;;;;;;5057951;28;20441;-94
2023/12/25 10:03:53;;;;;;;1.90;0.70;;;22.90;17.40;;;;;;5006525;28;20441;-88
2023/12/25 10:06:21;;;;;;;2.67;0.90;;;22.70;17.40;;;;;;5038221;28;20437;-95
2023/12/25 10:08:51;;;;;;;3.17;0.60;;;22.70;17.80;;;;;;5036158;28;20857;-93
2023/12/25 10:11:18;;;;;;;2.20;0.50;;;22.80;17.60;;;;;;5032210;28;20774;-95
2023/12/25 10:13:45;;;;;;;1.90;0.60;;;22.80;17.60;;;;;;5032976;28;20476;-92
2023/12/25 10:16:14;;;;;;;1.90;0.70;;;23.00;17.60;;;;;;5032536;28;20473;-92
2023/12/25 10:18:41;;;;;;;2.33;0.77;;;23.40;18.20;;;;;;5027352;28;20466;-95
2023/12/25 10:21:10;;;;;;;2.20;0.70;;;23.80;17.00;;;;;;5032247;28;20430;-95
2023/12/25 10:23:37;;;;;;;1.97;0.60;;;24.20;17.30;;;;;;5031989;28;20437;-92
2023/12/25 10:26:06;;;;;;;3.80;0.70;;;24.40;16.80;;;;;;5032729;28;20442;-94
2023/12/25 10:28:34;;;;;;;1.90;0.60;;;24.50;15.70;;;;;;5031473;28;20620;-91
2023/12/25 10:31:03;;;;;;;2.73;0.60;;;24.70;16.30;;;;;;5031357;28;20571;-90
2023/12/25 10:33:30;;;;;;;2.20;0.70;;;24.80;15.70;;;;;;5033134;28;20437;-95
2023/12/25 10:36:08;;;;;;;2.60;0.73;;;24.90;15.30;;;;;;5035500;28;20811;-95
2023/12/25 10:38:36;;;;;;;2.10;0.67;;;25.20;15.20;;;;;;5030749;28;20610;-90
2023/12/25 10:41:22;;;;;;;2.00;0.57;;;25.40;14.80;;;;;;5032763;28;20791;-94
2023/12/25 10:43:53;;;;;;;2.33;0.80;;;25.50;14.70;;;;;;5032639;28;20422;-96
2023/12/25 10:46:22;;;;;;;1.90;0.60;;;25.60;14.50;;;;;;5031160;28;20457;-94
2023/12/25 10:48:50;;;;;;;1.67;0.50;;;25.50;14.80;;;;;;5032465;28;20434;-92
2023/12/25 10:51:33;;;;;;;1.90;0.60;;;25.30;14.20;;;;;;5031717;28;20565;-93
2023/12/25 10:54:05;;;;;;;3.83;0.63;;;25.00;14.60;;;;;;5018392;28;20418;-84
2023/12/25 10:56:36;;;;;;;1.93;0.60;;;24.80;14.50;;;;;;5010875;28;20492;-89
2023/12/25 10:59:12;;;;;;;2.10;0.67;;;24.80;14.60;;;;;;5031963;28;20449;-94
2023/12/25 11:01:44;;;;;;;2.07;0.70;;;24.70;14.60;;;;;;5032147;28;20433;-92
2023/12/25 11:04:16;;;;;;;1.80;0.60;;;24.60;15.00;;;;;;5029015;28;20443;-86
2023/12/25 11:06:45;;;;;;;2.17;0.83;;;24.50;14.70;;;;;;5031574;28;20534;-91
2023/12/25 11:09:15;;;;;;;2.43;0.80;;;24.30;14.90;;;;;;5030169;28;20512;-94
2023/12/25 11:11:44;;;;;;;1.70;0.50;;;23.90;15.10;;;;;;5036937;28;20456;-93
2023/12/25 11:14:12;;;;;;;2.10;0.70;;;23.50;15.10;;;;;;5035767;28;20536;-90
2023/12/25 11:16:39;;;;;;;2.23;0.63;;;23.40;15.30;;;;;;5016817;28;20533;-93
2023/12/25 11:19:07;;;;;;;1.80;0.60;;;23.50;15.40;;;;;;5029659;28;20470;-92
2023/12/25 11:21:50;;;;;;;1.93;0.60;;;23.80;15.60;;;;;;5040381;28;20453;-92
2023/12/25 11:24:29;;;;;;;2.80;0.67;;;24.20;15.20;;;;;;5034540;28;20442;-87
2023/12/25 11:27:22;;;;;;;2.50;0.77;;;24.30;15.10;;;;;;5021825;28;20469;-92
2023/12/25 11:29:51;;;;;;;2.00;0.60;;;24.40;15.30;;;;;;5027168;28;20473;-90
2023/12/25 11:32:19;;;;;;;2.07;0.80;;;24.50;14.80;;;;;;5027418;28;20474;-91
2023/12/25 11:34:49;;;;;;;1.90;0.60;;;24.60;14.50;;;;;;5031114;28;20882;-92
2023/12/25 11:37:20;;;;;;;2.30;0.70;;;24.70;14.50;;;;;;5032675;28;20449;-86
2023/12/25 11:39:54;;;;;;;2.17;0.80;;;24.80;14.30;;;;;;5031588;28;20545;-91
2023/12/25 11:42:23;;;;;;;2.13;0.57;;;24.80;14.20;;;;;;5027388;28;20453;-89
2023/12/25 11:44:49;;;;;;;1.90;0.60;;;24.80;14.50;;;;;;5033043;28;20804;-89
2023/12/25 11:47:28;;;;;;;3.90;0.57;;;24.90;15.20;;;;;;5032259;28;20883;-88
2023/12/25 11:49:57;;;;;;;2.83;0.70;;;25.10;15.20;;;;;;5035846;28;20465;-88
2023/12/25 11:52:46;;;;;;;1.90;0.60;;;25.20;14.50;;;;;;5023296;28;20470;-88
2023/12/25 11:55:16;;;;;;;2.10;0.77;;;25.20;14.80;;;;;;5035137;28;20433;-90
2023/12/25 11:57:45;;;;;;;2.63;0.80;;;25.30;14.50;;;;;;5033863;28;20499;-89
2023/12/25 12:00:22;;;;;;;1.80;0.60;;;25.30;14.60;;;;;;5028892;28;20542;-86
2023/12/25 12:02:50;;;;;;;2.67;1.00;;;25.10;14.60;;;;;;5027439;28;20553;-90
2023/12/25 12:05:18;;;;;;;1.97;0.70;;;24.70;14.50;;;;;;5030762;28;20802;-89
2023/12/25 12:07:45;;;;;;;1.90;0.70;;;24.20;15.20;;;;;;5025616;28;20434;-90
2023/12/25 12:10:13;;;;;;;7.03;2.40;;;23.70;14.80;;;;;;5029984;28;20565;-87
2023/12/25 12:12:41;;;;;;;2.17;0.60;;;23.20;14.70;;;;;;5036558;28;20492;-88
2023/12/25 12:15:11;;;;;;;3.40;0.60;;;22.70;15.10;;;;;;5030910;28;20537;-90
2023/12/25 12:17:38;;;;;;;2.10;0.60;;;22.40;15.40;;;;;;5018995;28;20431;-90
2023/12/25 12:20:07;;;;;;;3.20;0.90;;;22.10;15.60;;;;;;5032197;28;20465;-92
2023/12/25 12:22:34;;;;;;;2.20;0.70;;;21.90;16.10;;;;;;5025406;28;20478;-91
2023/12/25 12:25:14;;;;;;;2.33;0.77;;;21.70;16.30;;;;;;5019539;28;20484;-92
2023/12/25 12:27:41;;;;;;;1.97;0.80;;;21.60;16.00;;;;;;5036724;28;20425;-92
2023/12/25 12:30:10;;;;;;;2.00;0.80;;;21.70;16.20;;;;;;5035199;28;20508;-91
2023/12/25 12:32:38;;;;;;;2.00;0.70;;;21.80;16.00;;;;;;5033359;28;20489;-89
2023/12/25 12:35:05;;;;;;;2.67;0.80;;;21.90;15.80;;;;;;5036113;28;20496;-91
2023/12/25 12:37:33;;;;;;;2.23;0.70;;;22.10;16.10;;;;;;5033718;28;20477;-92
2023/12/25 12:40:01;;;;;;;2.10;0.70;;;22.30;15.80;;;;;;5030696;28;21172;-92
2023/12/25 12:42:28;;;;;;;3.30;1.00;;;22.30;16.00;;;;;;5033389;28;20491;-87
2023/12/25 12:44:57;;;;;;;2.10;0.70;;;22.10;15.80;;;;;;5025019;28;20645;-90
2023/12/25 12:47:26;;;;;;;1.97;0.70;;;21.80;16.00;;;;;;5035059;28;20465;-93
2023/12/25 12:49:53;;;;;;;1.90;0.70;;;21.50;16.10;;;;;;5034172;28;20487;-91
2023/12/25 12:52:20;;;;;;;2.20;0.70;;;21.30;15.60;;;;;;5036210;28;20454;-92